createdAt,value
2023-03-06T00:00:54.256Z,3.70
2023-03-06T00:03:24.012Z,2.45
2023-03-06T00:05:55.662Z,3.92
2023-03-06T00:08:25.169Z,2.92
2023-03-06T00:10:54.633Z,3.50
2023-03-06T00:13:30.174Z,3.10
2023-03-06T00:16:01.639Z,3.35
2023-03-06T00:18:30.806Z,2.80
2023-03-06T00:21:00.476Z,2.88
2023-03-06T00:23:29.653Z,3.38
2023-03-06T00:25:59.063Z,3.75
2023-03-06T00:28:31.025Z,3.97
2023-03-06T00:31:00.595Z,3.92
2023-03-06T00:33:30.920Z,3.83
2023-03-06T00:36:00.379Z,4.22
2023-03-06T00:38:33.543Z,3.03
2023-03-06T00:41:10.969Z,3.22
2023-03-06T00:43:41.484Z,3.42
2023-03-06T00:46:11.036Z,3.90
2023-03-06T00:48:41.659Z,3.22
2023-03-06T00:51:13.850Z,4.20
2023-03-06T00:53:43.185Z,4.15
2023-03-06T00:56:12.553Z,3.65
2023-03-06T00:58:43.227Z,3.28
2023-03-06T01:01:12.774Z,3.28
2023-03-06T01:03:41.835Z,2.78
2023-03-06T01:06:11.420Z,2.15
2023-03-06T01:08:40.484Z,2.70
2023-03-06T01:11:09.838Z,3.47
2023-03-06T01:13:39.319Z,2.28
2023-03-06T01:16:13.550Z,3.17
2023-03-06T01:18:43.309Z,3.25
2023-03-06T01:21:13.350Z,3.92
2023-03-06T01:23:42.897Z,2.85
2023-03-06T01:26:12.722Z,3.53
2023-03-06T01:28:41.855Z,2.80
2023-03-06T01:31:12.982Z,3.10
2023-03-06T01:33:42.354Z,4.15
2023-03-06T01:36:14.104Z,2.63
2023-03-06T01:38:43.396Z,3.03
2023-03-06T01:41:15.821Z,2.78
2023-03-06T01:43:47.289Z,3.00
2023-03-06T01:46:27.279Z,3.37
2023-03-06T01:48:59.009Z,3.20
2023-03-06T01:51:34.409Z,2.93
2023-03-06T01:54:09.985Z,3.00
2023-03-06T01:56:41.932Z,2.75
2023-03-06T01:59:12.028Z,3.20
2023-03-06T02:01:44.974Z,2.87
2023-03-06T02:04:14.892Z,2.72
2023-03-06T02:06:46.296Z,3.90
2023-03-06T02:11:46.405Z,2.90
2023-03-06T02:14:18.379Z,2.83
2023-03-06T02:16:50.726Z,3.55
2023-03-06T02:19:33.704Z,2.83
2023-03-06T02:22:03.767Z,2.80
2023-03-06T02:24:41.885Z,3.00
2023-03-06T02:27:15.068Z,3.50
2023-03-06T02:29:45.706Z,3.22
2023-03-06T02:32:15.165Z,2.85
2023-03-06T02:34:53.068Z,2.88
2023-03-06T02:37:23.209Z,2.83
2023-03-06T02:39:58.833Z,2.85
2023-03-06T02:42:30.665Z,2.70
2023-03-06T02:45:04.350Z,3.15
2023-03-06T02:47:34.044Z,3.03
2023-03-06T02:50:03.227Z,2.67
2023-03-06T02:52:32.601Z,2.70
2023-03-06T02:55:01.787Z,3.08
2023-03-06T02:57:32.690Z,3.00
2023-03-06T03:00:02.208Z,3.70
2023-03-06T03:02:32.469Z,3.22
2023-03-06T03:05:01.748Z,3.72
2023-03-06T03:07:32.160Z,2.33
2023-03-06T03:10:01.370Z,2.33
2023-03-06T03:12:33.175Z,3.33
2023-03-06T03:15:02.386Z,2.72
2023-03-06T03:17:31.749Z,3.03
2023-03-06T03:20:01.038Z,2.60
2023-03-06T03:22:32.369Z,2.93
2023-03-06T03:25:01.597Z,3.80
2023-03-06T03:27:32.476Z,2.95
2023-03-06T03:33:35.299Z,3.03
2023-03-06T03:36:07.237Z,3.10
2023-03-06T03:38:39.690Z,2.27
2023-03-06T03:41:09.438Z,2.53
2023-03-06T03:43:40.300Z,2.88
2023-03-06T03:46:09.918Z,2.97
2023-03-06T03:48:39.416Z,3.00
2023-03-06T03:53:43.520Z,3.33
2023-03-06T03:56:15.767Z,2.80
2023-03-06T03:58:55.385Z,2.88
2023-03-06T04:01:26.393Z,3.20
2023-03-06T04:03:56.506Z,2.80
2023-03-06T04:06:25.995Z,2.80
2023-03-06T04:08:55.401Z,3.20
2023-03-06T04:11:26.063Z,2.97
2023-03-06T04:16:27.291Z,3.00
2023-03-06T04:18:57.686Z,3.38
2023-03-06T04:21:27.214Z,3.22
2023-03-06T04:23:56.753Z,2.72
2023-03-06T04:26:26.188Z,3.03
2023-03-06T04:28:55.694Z,3.88
2023-03-06T04:31:26.770Z,3.10
2023-03-06T04:33:56.065Z,2.80
2023-03-06T04:36:29.782Z,2.55
2023-03-06T04:39:03.622Z,3.17
2023-03-06T04:41:34.960Z,3.07
2023-03-06T04:44:04.895Z,2.58
2023-03-06T04:46:36.289Z,3.28
2023-03-06T04:49:05.564Z,3.67
2023-03-06T04:51:36.821Z,2.90
2023-03-06T04:54:06.581Z,3.00
2023-03-06T04:56:35.964Z,3.95
2023-03-06T04:59:05.434Z,3.33
2023-03-06T05:01:36.167Z,4.13
2023-03-06T05:04:05.587Z,3.93
2023-03-06T05:06:35.070Z,5.03
2023-03-06T05:09:04.309Z,3.45
2023-03-06T05:11:33.706Z,3.00
2023-03-06T05:14:02.916Z,3.30
2023-03-06T05:16:32.413Z,3.53
2023-03-06T05:19:03.002Z,4.17
2023-03-06T05:21:32.502Z,3.45
2023-03-06T05:24:01.742Z,3.83
2023-03-06T05:26:31.334Z,3.67
2023-03-06T05:29:00.389Z,3.93
2023-03-06T05:31:29.868Z,4.45
2023-03-06T05:33:59.574Z,4.50
2023-03-06T05:36:30.385Z,4.55
2023-03-06T05:38:59.705Z,4.97
2023-03-06T05:41:29.119Z,3.50
2023-03-06T05:43:58.894Z,4.18
2023-03-06T05:46:28.345Z,4.22
2023-03-06T05:48:58.556Z,4.47
2023-03-06T05:51:29.470Z,5.13
2023-03-06T05:53:58.683Z,4.40
2023-03-06T05:56:28.390Z,4.60
2023-03-06T05:58:57.670Z,4.85
2023-03-06T06:01:28.766Z,4.88
2023-03-06T06:03:57.979Z,5.70
2023-03-06T06:06:27.328Z,5.10
2023-03-06T06:08:57.901Z,4.43
2023-03-06T06:11:27.441Z,4.40
2023-03-06T06:13:56.620Z,3.83
2023-03-06T06:16:26.122Z,6.05
2023-03-06T06:18:55.177Z,5.07
2023-03-06T06:21:24.654Z,5.75
2023-03-06T06:23:53.682Z,5.37
2023-03-06T06:26:24.824Z,5.53
2023-03-06T06:28:54.018Z,5.67
2023-03-06T06:31:23.987Z,5.18
2023-03-06T06:33:53.295Z,5.90
2023-03-06T06:36:23.089Z,4.15
2023-03-06T06:38:52.629Z,5.45
2023-03-06T06:44:16.249Z,4.90
2023-03-06T06:49:36.085Z,4.10
2023-03-06T06:52:06.111Z,4.07
2023-03-06T06:54:35.504Z,4.85
2023-03-06T06:57:06.412Z,5.47
2023-03-06T06:59:35.864Z,4.63
2023-03-06T07:02:05.920Z,4.28
2023-03-06T07:04:35.617Z,3.88
2023-03-06T07:07:04.974Z,4.95
2023-03-06T07:09:34.478Z,3.75
2023-03-06T07:12:05.448Z,5.45
2023-03-06T07:14:34.686Z,4.15
2023-03-06T07:17:04.039Z,3.90
2023-03-06T07:19:33.694Z,3.70
2023-03-06T07:22:04.211Z,4.10
2023-03-06T07:24:33.341Z,3.38
2023-03-06T07:27:03.007Z,5.28
2023-03-06T07:29:34.612Z,6.72
2023-03-06T07:32:04.248Z,5.28
2023-03-06T07:34:33.510Z,4.90
2023-03-06T07:37:03.187Z,4.32
2023-03-06T07:39:32.377Z,4.60
2023-03-06T07:42:01.706Z,4.72
2023-03-06T07:44:32.830Z,5.10
2023-03-06T07:47:02.968Z,3.72
2023-03-06T07:49:32.204Z,4.53
2023-03-06T07:52:03.614Z,2.30
2023-03-06T07:54:32.831Z,2.63
2023-03-06T07:57:02.172Z,2.90
2023-03-06T07:59:33.164Z,3.22
2023-03-06T08:02:02.687Z,3.63
2023-03-06T08:04:31.770Z,4.20
2023-03-06T08:07:01.607Z,2.80
2023-03-06T08:09:30.903Z,3.22
2023-03-06T08:12:00.596Z,2.75
2023-03-06T08:14:30.099Z,3.20
2023-03-06T08:17:01.063Z,2.80
2023-03-06T08:19:30.281Z,3.75
2023-03-06T08:21:59.648Z,3.28
2023-03-06T08:24:28.832Z,3.25
2023-03-06T08:26:58.213Z,4.30
2023-03-06T08:29:27.776Z,3.88
2023-03-06T08:31:57.126Z,4.15
2023-03-06T08:34:28.203Z,3.92
2023-03-06T08:36:57.752Z,2.33
2023-03-06T08:39:26.801Z,4.30
2023-03-06T08:41:56.131Z,2.90
2023-03-06T08:44:25.191Z,2.90
2023-03-06T08:46:54.671Z,2.67
2023-03-06T08:49:24.322Z,2.75
2023-03-06T08:51:55.526Z,2.63
2023-03-06T08:54:24.679Z,3.65
2023-03-06T08:56:54.357Z,2.67
2023-03-06T08:59:24.737Z,2.60
2023-03-06T09:01:55.639Z,2.92
2023-03-06T09:04:24.968Z,3.00
2023-03-06T09:06:55.808Z,4.00
2023-03-06T09:09:25.006Z,3.55
2023-03-06T09:11:54.974Z,3.13
2023-03-06T09:14:24.202Z,2.20
2023-03-06T09:16:53.665Z,2.45
2023-03-06T09:19:22.865Z,2.83
2023-03-06T09:21:54.049Z,1.90
2023-03-06T09:24:24.747Z,2.72
2023-03-06T09:26:54.180Z,3.38
2023-03-06T09:29:23.276Z,3.07
2023-03-06T09:31:52.934Z,2.60
2023-03-06T09:34:22.751Z,2.63
2023-03-06T09:36:57.044Z,2.78
2023-03-06T09:39:28.643Z,2.88
2023-03-06T09:41:58.698Z,2.20
2023-03-06T09:47:12.415Z,2.50
2023-03-06T09:49:54.093Z,3.45
2023-03-06T09:52:32.557Z,3.85
2023-03-06T09:55:11.927Z,3.28
2023-03-06T09:57:46.560Z,2.72
2023-03-06T10:00:20.821Z,2.45
2023-03-06T10:02:54.696Z,3.25
2023-03-06T10:05:34.288Z,2.92
2023-03-06T10:08:07.834Z,2.03
2023-03-06T10:10:45.899Z,3.20
2023-03-06T10:13:20.888Z,3.38
2023-03-06T10:15:51.273Z,2.70
2023-03-06T10:18:20.731Z,3.03
2023-03-06T10:20:56.112Z,3.03
2023-03-06T10:23:43.200Z,2.75
2023-03-06T10:26:18.068Z,3.05
2023-03-06T10:28:53.927Z,2.72
2023-03-06T10:31:25.875Z,2.55
2023-03-06T10:33:59.100Z,1.75
2023-03-06T10:36:31.146Z,3.17
2023-03-06T10:39:01.031Z,2.88
2023-03-06T10:41:32.909Z,3.92
2023-03-06T10:44:26.478Z,3.83
2023-03-06T10:46:56.425Z,2.72
2023-03-06T10:49:30.166Z,2.88
2023-03-06T10:52:02.951Z,2.65
2023-03-06T10:54:34.556Z,2.60
2023-03-06T10:57:25.948Z,2.97
2023-03-06T10:59:57.300Z,2.70
2023-03-06T11:02:30.013Z,2.47
2023-03-06T11:05:01.138Z,2.05
2023-03-06T11:07:31.933Z,2.47
2023-03-06T11:10:08.826Z,2.30
2023-03-06T11:12:42.679Z,2.40
2023-03-06T11:15:22.380Z,3.92
2023-03-06T11:17:58.964Z,2.70
2023-03-06T11:20:48.513Z,3.65
2023-03-06T11:23:23.088Z,3.92
2023-03-06T11:25:57.357Z,2.92
2023-03-06T11:28:33.999Z,3.00
2023-03-06T11:31:09.781Z,3.03
2023-03-06T11:33:46.475Z,2.88
2023-03-06T11:36:24.066Z,2.47
2023-03-06T11:38:54.848Z,1.98
2023-03-06T11:41:34.076Z,3.08
2023-03-06T11:44:13.965Z,2.33
2023-03-06T11:46:49.445Z,2.55
2023-03-06T11:49:25.579Z,4.13
2023-03-06T11:51:58.783Z,2.78
2023-03-06T11:54:28.309Z,2.78
2023-03-06T11:57:02.878Z,3.33
2023-03-06T12:00:02.187Z,2.60
2023-03-06T12:02:50.891Z,3.33
2023-03-06T12:05:35.585Z,2.40
2023-03-06T12:08:34.554Z,4.57
2023-03-06T12:11:12.505Z,3.50
2023-03-06T12:14:03.999Z,2.97
2023-03-06T12:16:59.539Z,2.78
2023-03-06T12:19:52.239Z,2.88
2023-03-06T12:22:40.304Z,2.95
2023-03-06T12:25:29.361Z,2.88
2023-03-06T12:28:13.659Z,3.17
2023-03-06T12:31:02.379Z,2.92
2023-03-06T12:33:42.293Z,2.58
2023-03-06T12:36:25.838Z,2.13
2023-03-06T12:39:04.763Z,3.05
2023-03-06T12:41:44.813Z,2.17
2023-03-06T12:44:39.414Z,2.10
2023-03-06T12:47:13.876Z,2.70
2023-03-06T12:49:49.809Z,2.38
2023-03-06T12:52:30.341Z,2.30
2023-03-06T12:55:06.946Z,2.47
2023-03-06T12:57:38.523Z,3.00
2023-03-06T13:00:11.374Z,2.47
2023-03-06T13:03:07.891Z,3.60
2023-03-06T13:05:58.908Z,3.22
2023-03-06T13:09:00.229Z,3.25
2023-03-06T13:11:48.067Z,2.75
2023-03-06T13:14:26.251Z,2.60
2023-03-06T13:16:55.718Z,3.80
2023-03-06T13:19:27.020Z,3.53
2023-03-06T13:22:14.659Z,2.95
2023-03-06T13:24:45.555Z,2.63
2023-03-06T13:28:00.389Z,1.95
2023-03-06T13:30:46.491Z,1.60
2023-03-06T13:33:54.870Z,2.70
2023-03-06T13:36:32.017Z,2.67
2023-03-06T13:39:19.599Z,1.80
2023-03-06T13:42:01.302Z,2.30
2023-03-06T13:44:51.850Z,1.77
2023-03-06T13:48:02.817Z,2.30
2023-03-06T13:50:38.330Z,2.63
2023-03-06T13:53:41.284Z,2.63
2023-03-06T13:56:42.710Z,2.30
2023-03-06T13:59:40.133Z,2.55
2023-03-06T14:02:36.349Z,3.03
2023-03-06T14:05:13.418Z,2.30
2023-03-06T14:07:45.973Z,2.20
2023-03-06T14:10:24.848Z,2.08
2023-03-06T14:13:04.513Z,3.30
2023-03-06T14:15:43.151Z,2.10
2023-03-06T14:18:20.825Z,2.30
2023-03-06T14:20:55.735Z,2.42
2023-03-06T14:23:29.621Z,2.00
2023-03-06T14:26:06.398Z,2.05
2023-03-06T14:28:37.164Z,1.80
2023-03-06T14:31:07.620Z,3.00
2023-03-06T14:33:44.678Z,3.50
2023-03-06T14:36:17.607Z,3.75
2023-03-06T14:38:51.543Z,3.35
2023-03-06T14:41:26.928Z,2.90
2023-03-06T14:44:19.459Z,3.03
2023-03-06T14:46:50.786Z,5.90
2023-03-06T14:49:23.671Z,4.40
2023-03-06T14:51:55.450Z,4.65
2023-03-06T14:54:29.731Z,4.13
2023-03-06T14:57:03.849Z,4.93
2023-03-06T14:59:44.612Z,4.57
2023-03-06T15:02:21.536Z,4.18
2023-03-06T15:04:55.702Z,4.20
2023-03-06T15:07:29.212Z,4.55
2023-03-06T15:10:00.733Z,3.95
2023-03-06T15:12:39.499Z,4.85
2023-03-06T15:15:41.443Z,3.90
2023-03-06T15:18:33.854Z,4.30
2023-03-06T15:21:18.215Z,3.88
2023-03-06T15:23:49.159Z,2.97
2023-03-06T15:26:29.379Z,3.05
2023-03-06T15:29:09.082Z,3.38
2023-03-06T15:34:32.437Z,3.10
2023-03-06T15:37:19.956Z,9.02
2023-03-06T15:40:06.778Z,6.93
2023-03-06T15:42:40.908Z,9.10
2023-03-06T15:47:48.405Z,7.63
2023-03-06T15:50:22.068Z,6.55
2023-03-06T15:52:54.306Z,7.65
2023-03-06T15:55:26.027Z,9.35
2023-03-06T15:58:00.799Z,10.23
2023-03-06T16:00:34.179Z,10.27
2023-03-06T16:03:05.934Z,9.70
2023-03-06T16:05:35.937Z,8.25
2023-03-06T16:08:11.178Z,8.93
2023-03-06T16:10:43.965Z,8.95
2023-03-06T16:13:17.223Z,9.40
2023-03-06T16:15:49.752Z,8.65
2023-03-06T16:18:53.067Z,9.02
2023-03-06T16:21:24.084Z,6.68
2023-03-06T16:23:54.987Z,6.22
2023-03-06T16:26:30.715Z,5.95
2023-03-06T16:29:00.495Z,7.03
2023-03-06T16:31:30.003Z,7.13
2023-03-06T16:33:59.039Z,7.30
2023-03-06T16:36:30.204Z,6.85
2023-03-06T16:39:00.846Z,9.00
2023-03-06T16:41:33.117Z,8.02
2023-03-06T16:44:02.464Z,11.30
2023-03-06T16:46:33.104Z,15.07
2023-03-06T16:49:06.126Z,13.82
2023-03-06T16:51:39.153Z,15.50
2023-03-06T16:54:09.694Z,20.38
2023-03-06T16:56:39.698Z,13.70
2023-03-06T16:59:09.216Z,11.90
2023-03-06T17:01:39.212Z,12.40
2023-03-06T17:04:08.419Z,14.07
2023-03-06T17:06:38.506Z,9.98
2023-03-06T17:09:10.980Z,13.43
2023-03-06T17:11:43.076Z,17.15
2023-03-06T17:14:12.669Z,18.17
2023-03-06T17:16:42.588Z,14.55
2023-03-06T17:19:15.549Z,15.82
2023-03-06T17:21:45.477Z,15.38
2023-03-06T17:24:16.354Z,14.93
2023-03-06T17:26:47.001Z,14.02
2023-03-06T17:29:16.423Z,16.23
2023-03-06T17:31:47.271Z,19.17
2023-03-06T17:34:16.606Z,15.68
2023-03-06T17:36:45.914Z,14.73
2023-03-06T17:39:16.399Z,15.40
2023-03-06T17:41:46.558Z,11.85
2023-03-06T17:44:16.542Z,10.23
2023-03-06T17:46:46.840Z,9.27
2023-03-06T17:49:16.451Z,9.63
2023-03-06T17:51:46.193Z,12.25
2023-03-06T17:54:17.012Z,12.93
2023-03-06T17:56:46.699Z,11.73
2023-03-06T17:59:16.009Z,11.07
2023-03-06T18:01:46.188Z,11.55
2023-03-06T18:06:44.785Z,11.40
2023-03-06T18:09:15.226Z,11.60
2023-03-06T18:11:44.890Z,12.45
2023-03-06T18:14:14.165Z,18.15
2023-03-06T18:16:43.959Z,17.02
2023-03-06T18:19:14.409Z,12.82
2023-03-06T18:21:44.407Z,11.40
2023-03-06T18:24:15.019Z,9.15
2023-03-06T18:26:44.533Z,9.18
2023-03-06T18:29:13.638Z,9.50
2023-03-06T18:31:44.867Z,10.73
2023-03-06T18:34:17.539Z,11.73
2023-03-06T18:36:50.777Z,11.55
2023-03-06T18:39:22.448Z,11.73
2023-03-06T18:41:52.259Z,11.35
2023-03-06T18:44:24.022Z,10.40
2023-03-06T18:46:53.587Z,11.48
2023-03-06T18:49:22.766Z,11.02
2023-03-06T18:51:53.131Z,12.13
2023-03-06T18:56:54.178Z,11.43
2023-03-06T18:59:23.625Z,10.00
2023-03-06T19:01:57.517Z,10.35
2023-03-06T19:04:27.466Z,10.23
2023-03-06T19:06:57.663Z,10.23
2023-03-06T19:09:30.397Z,11.45
2023-03-06T19:12:00.355Z,11.65
2023-03-06T19:14:29.944Z,11.20
2023-03-06T19:16:59.336Z,11.05
2023-03-06T19:19:29.922Z,10.63
2023-03-06T19:22:00.231Z,12.63
2023-03-06T19:24:31.254Z,11.02
2023-03-06T19:27:00.797Z,11.55
2023-03-06T19:29:29.898Z,10.48
2023-03-06T19:31:59.734Z,10.30
2023-03-06T19:34:28.973Z,12.15
2023-03-06T19:36:58.667Z,14.38
2023-03-06T19:39:27.791Z,18.42
2023-03-06T19:42:00.783Z,15.05
2023-03-06T19:44:34.052Z,14.95
2023-03-06T19:47:06.843Z,15.40
2023-03-06T19:49:38.136Z,14.43
2023-03-06T19:52:08.269Z,12.45
2023-03-06T19:54:37.855Z,12.95
2023-03-06T19:57:08.935Z,10.68
2023-03-06T19:59:38.225Z,11.63
2023-03-06T20:02:08.038Z,10.68
2023-03-06T20:04:39.442Z,11.77
2023-03-06T20:07:08.954Z,10.45
2023-03-06T20:09:38.412Z,10.57
2023-03-06T20:12:09.364Z,10.48
2023-03-06T20:14:39.814Z,12.50
2023-03-06T20:17:09.798Z,12.98
2023-03-06T20:19:40.580Z,11.43
2023-03-06T20:22:10.588Z,13.15
2023-03-06T20:24:40.362Z,14.23
2023-03-06T20:27:12.303Z,16.70
2023-03-06T20:29:44.978Z,15.82
2023-03-06T20:32:15.403Z,20.27
2023-03-06T20:34:46.633Z,21.92
2023-03-06T20:37:16.094Z,21.80
2023-03-06T20:39:48.345Z,27.65
2023-03-06T20:42:19.227Z,28.77
2023-03-06T20:44:49.110Z,27.48
2023-03-06T20:47:18.598Z,27.55
2023-03-06T20:49:47.685Z,24.53
2023-03-06T20:52:18.919Z,25.33
2023-03-06T20:54:48.127Z,24.48
2023-03-06T20:57:19.097Z,21.58
2023-03-06T20:59:48.305Z,21.33
2023-03-06T21:02:17.995Z,21.70
2023-03-06T21:04:47.290Z,27.10
2023-03-06T21:07:17.051Z,24.08
2023-03-06T21:09:47.988Z,23.60
2023-03-06T21:12:19.005Z,24.95
2023-03-06T21:14:48.418Z,19.92
2023-03-06T21:17:18.873Z,16.17
2023-03-06T21:19:48.040Z,17.25
2023-03-06T21:22:17.403Z,15.02
2023-03-06T21:24:46.680Z,17.85
2023-03-06T21:27:16.115Z,18.30
2023-03-06T21:29:48.030Z,17.02
2023-03-06T21:32:17.977Z,19.48
2023-03-06T21:34:47.042Z,108.57
2023-03-06T21:37:16.560Z,32.03
2023-03-06T21:39:45.620Z,26.33
2023-03-06T21:42:15.215Z,22.88
2023-03-06T21:44:44.513Z,21.02
2023-03-06T21:47:15.410Z,23.73
2023-03-06T21:49:44.955Z,22.93
2023-03-06T21:52:14.335Z,23.70
2023-03-06T21:54:43.530Z,23.33
2023-03-06T21:57:13.247Z,24.00
2023-03-06T21:59:42.504Z,24.63
2023-03-06T22:02:12.584Z,25.25
2023-03-06T22:04:44.277Z,27.48
2023-03-06T22:07:13.701Z,26.10
2023-03-06T22:09:42.779Z,25.50
2023-03-06T22:12:12.571Z,28.45
2023-03-06T22:14:44.115Z,29.23
2023-03-06T22:17:13.714Z,28.00
2023-03-06T22:19:44.174Z,27.45
2023-03-06T22:22:13.580Z,27.67
2023-03-06T22:24:42.719Z,25.13
2023-03-06T22:27:12.259Z,27.33
2023-03-06T22:29:41.477Z,28.67
2023-03-06T22:32:10.945Z,27.20
2023-03-06T22:34:40.439Z,26.55
2023-03-06T22:37:11.306Z,27.25
2023-03-06T22:39:40.598Z,26.00
2023-03-06T22:42:09.986Z,25.83
2023-03-06T22:44:39.646Z,27.48
2023-03-06T22:47:09.012Z,27.48
2023-03-06T22:49:39.544Z,26.58
2023-03-06T22:52:10.631Z,29.20
2023-03-06T22:54:40.220Z,25.47
2023-03-06T22:57:09.794Z,25.27
2023-03-06T22:59:38.901Z,25.73
2023-03-06T23:02:08.394Z,23.70
2023-03-06T23:04:37.512Z,24.73
2023-03-06T23:07:07.095Z,25.55
2023-03-06T23:09:37.727Z,25.15
2023-03-06T23:12:25.733Z,23.50
2023-03-06T23:15:13.814Z,25.10
2023-03-06T23:18:02.276Z,24.10
2023-03-06T23:20:50.170Z,21.73
2023-03-06T23:23:39.075Z,26.43
2023-03-06T23:26:11.308Z,24.90
2023-03-06T23:28:41.638Z,24.80
2023-03-06T23:31:12.202Z,26.30
2023-03-06T23:33:42.725Z,26.40
2023-03-06T23:36:13.451Z,24.13
2023-03-06T23:38:43.309Z,27.00
2023-03-06T23:41:16.651Z,24.58
2023-03-06T23:43:46.548Z,26.43
2023-03-06T23:46:16.163Z,27.17
2023-03-06T23:48:46.765Z,29.43
2023-03-06T23:51:18.424Z,27.33
2023-03-06T23:53:49.550Z,28.23
2023-03-06T23:56:20.380Z,28.70
2023-03-06T23:58:49.937Z,27.23
